sensor_id;sensor_type;location;lat;lon;timestamp;temperature;humidity
23669;DHT22;12011;47.422;15.018;2023-04-25T00:00:35;8.10;58.50
23669;DHT22;12011;47.422;15.018;2023-04-25T00:03:10;8.10;55.30
23669;DHT22;12011;47.422;15.018;2023-04-25T00:05:43;8.10;55.60
23669;DHT22;12011;47.422;15.018;2023-04-25T00:08:12;8.10;54.90
23669;DHT22;12011;47.422;15.018;2023-04-25T00:10:54;8.10;54.50
23669;DHT22;12011;47.422;15.018;2023-04-25T00:13:36;8.10;55.40
23669;DHT22;12011;47.422;15.018;2023-04-25T00:16:08;7.80;60.50
23669;DHT22;12011;47.422;15.018;2023-04-25T00:18:43;7.60;63.30
23669;DHT22;12011;47.422;15.018;2023-04-25T00:21:21;7.60;66.30
23669;DHT22;12011;47.422;15.018;2023-04-25T00:23:56;7.50;66.30
23669;DHT22;12011;47.422;15.018;2023-04-25T00:26:41;7.50;62.60
23669;DHT22;12011;47.422;15.018;2023-04-25T00:29:17;7.40;63.30
23669;DHT22;12011;47.422;15.018;2023-04-25T00:31:49;7.40;60.70
23669;DHT22;12011;47.422;15.018;2023-04-25T00:34:22;7.40;59.60
23669;DHT22;12011;47.422;15.018;2023-04-25T00:36:54;7.30;66.40
23669;DHT22;12011;47.422;15.018;2023-04-25T00:39:28;7.20;64.60
23669;DHT22;12011;47.422;15.018;2023-04-25T00:42:05;7.20;63.90
23669;DHT22;12011;47.422;15.018;2023-04-25T00:44:40;7.00;68.70
23669;DHT22;12011;47.422;15.018;2023-04-25T00:47:11;7.10;65.80
23669;DHT22;12011;47.422;15.018;2023-04-25T00:49:48;7.20;63.40
23669;DHT22;12011;47.422;15.018;2023-04-25T00:52:23;7.20;63.00
23669;DHT22;12011;47.422;15.018;2023-04-25T00:54:56;7.30;63.90
23669;DHT22;12011;47.422;15.018;2023-04-25T00:57:28;7.20;63.60
23669;DHT22;12011;47.422;15.018;2023-04-25T01:00:03;7.10;63.30
23669;DHT22;12011;47.422;15.018;2023-04-25T01:02:36;6.80;70.20
23669;DHT22;12011;47.422;15.018;2023-04-25T01:05:11;6.40;81.10
23669;DHT22;12011;47.422;15.018;2023-04-25T01:07:47;6.60;68.00
23669;DHT22;12011;47.422;15.018;2023-04-25T01:10:18;6.60;67.80
23669;DHT22;12011;47.422;15.018;2023-04-25T01:13:00;7.00;66.40
23669;DHT22;12011;47.422;15.018;2023-04-25T01:15:31;7.20;62.70
23669;DHT22;12011;47.422;15.018;2023-04-25T01:18:04;7.00;62.20
23669;DHT22;12011;47.422;15.018;2023-04-25T01:20:44;6.60;63.90
23669;DHT22;12011;47.422;15.018;2023-04-25T01:23:20;6.80;64.90
23669;DHT22;12011;47.422;15.018;2023-04-25T01:25:53;6.90;65.60
23669;DHT22;12011;47.422;15.018;2023-04-25T01:28:24;6.80;65.80
23669;DHT22;12011;47.422;15.018;2023-04-25T01:30:55;6.70;69.80
23669;DHT22;12011;47.422;15.018;2023-04-25T01:33:29;6.70;65.80
23669;DHT22;12011;47.422;15.018;2023-04-25T01:35:59;6.90;63.50
23669;DHT22;12011;47.422;15.018;2023-04-25T01:38:33;6.90;63.20
23669;DHT22;12011;47.422;15.018;2023-04-25T01:41:11;6.90;61.10
23669;DHT22;12011;47.422;15.018;2023-04-25T01:43:45;6.70;70.50
23669;DHT22;12011;47.422;15.018;2023-04-25T01:46:18;6.50;74.80
23669;DHT22;12011;47.422;15.018;2023-04-25T01:48:49;6.30;73.20
23669;DHT22;12011;47.422;15.018;2023-04-25T01:51:20;6.00;82.10
23669;DHT22;12011;47.422;15.018;2023-04-25T01:53:54;5.90;79.50
23669;DHT22;12011;47.422;15.018;2023-04-25T01:56:30;5.80;85.50
23669;DHT22;12011;47.422;15.018;2023-04-25T01:59:01;5.70;83.10
23669;DHT22;12011;47.422;15.018;2023-04-25T02:02:07;5.60;89.80
23669;DHT22;12011;47.422;15.018;2023-04-25T02:04:39;5.50;80.10
23669;DHT22;12011;47.422;15.018;2023-04-25T02:07:15;5.50;83.20
23669;DHT22;12011;47.422;15.018;2023-04-25T02:10:01;5.70;85.40
23669;DHT22;12011;47.422;15.018;2023-04-25T02:12:37;5.30;92.70
23669;DHT22;12011;47.422;15.018;2023-04-25T02:15:33;4.80;95.50
23669;DHT22;12011;47.422;15.018;2023-04-25T02:18:21;4.70;92.50
23669;DHT22;12011;47.422;15.018;2023-04-25T02:20:52;4.70;91.00
23669;DHT22;12011;47.422;15.018;2023-04-25T02:23:24;4.90;87.10
23669;DHT22;12011;47.422;15.018;2023-04-25T02:26:02;4.80;94.80
23669;DHT22;12011;47.422;15.018;2023-04-25T02:28:37;4.60;96.50
23669;DHT22;12011;47.422;15.018;2023-04-25T02:31:08;4.80;93.20
23669;DHT22;12011;47.422;15.018;2023-04-25T02:33:40;4.80;91.20
23669;DHT22;12011;47.422;15.018;2023-04-25T02:36:12;4.80;97.50
23669;DHT22;12011;47.422;15.018;2023-04-25T02:38:46;4.70;99.90
23669;DHT22;12011;47.422;15.018;2023-04-25T02:41:25;4.80;95.70
23669;DHT22;12011;47.422;15.018;2023-04-25T02:43:57;4.90;96.30
23669;DHT22;12011;47.422;15.018;2023-04-25T02:46:27;5.20;92.20
23669;DHT22;12011;47.422;15.018;2023-04-25T02:49:00;5.20;92.70
23669;DHT22;12011;47.422;15.018;2023-04-25T02:51:31;5.10;94.20
23669;DHT22;12011;47.422;15.018;2023-04-25T02:54:03;5.00;96.20
23669;DHT22;12011;47.422;15.018;2023-04-25T02:56:43;4.90;95.30
23669;DHT22;12011;47.422;15.018;2023-04-25T02:59:20;5.00;93.00
23669;DHT22;12011;47.422;15.018;2023-04-25T03:01:53;5.00;92.80
23669;DHT22;12011;47.422;15.018;2023-04-25T03:04:25;4.90;94.70
23669;DHT22;12011;47.422;15.018;2023-04-25T03:07:02;4.70;96.70
23669;DHT22;12011;47.422;15.018;2023-04-25T03:09:31;4.50;99.00
23669;DHT22;12011;47.422;15.018;2023-04-25T03:12:06;4.20;99.90
23669;DHT22;12011;47.422;15.018;2023-04-25T03:14:37;4.10;99.90
23669;DHT22;12011;47.422;15.018;2023-04-25T03:17:08;4.00;99.90
23669;DHT22;12011;47.422;15.018;2023-04-25T03:19:44;4.10;99.90
23669;DHT22;12011;47.422;15.018;2023-04-25T03:22:21;4.00;99.90
23669;DHT22;12011;47.422;15.018;2023-04-25T03:25:02;4.20;99.70
23669;DHT22;12011;47.422;15.018;2023-04-25T03:27:37;4.10;99.90
23669;DHT22;12011;47.422;15.018;2023-04-25T03:30:11;4.20;99.70
23669;DHT22;12011;47.422;15.018;2023-04-25T03:32:49;4.10;99.10
23669;DHT22;12011;47.422;15.018;2023-04-25T03:35:22;4.30;97.60
23669;DHT22;12011;47.422;15.018;2023-04-25T03:37:52;4.30;98.70
23669;DHT22;12011;47.422;15.018;2023-04-25T03:40:35;4.00;99.90
23669;DHT22;12011;47.422;15.018;2023-04-25T03:43:36;3.80;99.90
23669;DHT22;12011;47.422;15.018;2023-04-25T03:46:14;3.80;99.90
23669;DHT22;12011;47.422;15.018;2023-04-25T03:48:52;3.90;99.90
23669;DHT22;12011;47.422;15.018;2023-04-25T03:51:41;3.90;99.90
23669;DHT22;12011;47.422;15.018;2023-04-25T03:54:13;4.00;99.90
23669;DHT22;12011;47.422;15.018;2023-04-25T03:57:06;3.80;99.90
23669;DHT22;12011;47.422;15.018;2023-04-25T03:59:43;3.50;99.90
23669;DHT22;12011;47.422;15.018;2023-04-25T04:02:17;3.30;99.90
23669;DHT22;12011;47.422;15.018;2023-04-25T04:04:53;3.40;99.90
23669;DHT22;12011;47.422;15.018;2023-04-25T04:07:26;3.50;99.90
23669;DHT22;12011;47.422;15.018;2023-04-25T04:10:03;3.60;99.90
23669;DHT22;12011;47.422;15.018;2023-04-25T04:12:39;3.50;99.90
23669;DHT22;12011;47.422;15.018;2023-04-25T04:15:17;3.50;99.90
23669;DHT22;12011;47.422;15.018;2023-04-25T04:17:49;3.40;99.90
23669;DHT22;12011;47.422;15.018;2023-04-25T04:20:31;3.60;99.90
23669;DHT22;12011;47.422;15.018;2023-04-25T04:23:07;3.60;99.90
23669;DHT22;12011;47.422;15.018;2023-04-25T04:25:42;3.80;99.90
23669;DHT22;12011;47.422;15.018;2023-04-25T04:28:35;3.90;99.90
23669;DHT22;12011;47.422;15.018;2023-04-25T04:31:29;4.10;99.90
23669;DHT22;12011;47.422;15.018;2023-04-25T04:34:01;4.80;99.90
23669;DHT22;12011;47.422;15.018;2023-04-25T04:36:36;5.80;98.10
23669;DHT22;12011;47.422;15.018;2023-04-25T04:39:07;6.60;99.90
23669;DHT22;12011;47.422;15.018;2023-04-25T04:41:54;7.10;93.30
23669;DHT22;12011;47.422;15.018;2023-04-25T04:44:42;7.90;91.20
23669;DHT22;12011;47.422;15.018;2023-04-25T04:47:37;8.80;84.50
23669;DHT22;12011;47.422;15.018;2023-04-25T04:50:27;9.40;84.10
23669;DHT22;12011;47.422;15.018;2023-04-25T04:53:21;10.10;73.10
23669;DHT22;12011;47.422;15.018;2023-04-25T04:56:04;10.80;56.90
23669;DHT22;12011;47.422;15.018;2023-04-25T04:59:00;11.20;58.90
23669;DHT22;12011;47.422;15.018;2023-04-25T05:02:08;11.30;53.40
23669;DHT22;12011;47.422;15.018;2023-04-25T05:04:58;12.20;56.50
23669;DHT22;12011;47.422;15.018;2023-04-25T05:07:56;12.60;53.60
23669;DHT22;12011;47.422;15.018;2023-04-25T05:11:04;13.50;53.90
23669;DHT22;12011;47.422;15.018;2023-04-25T05:13:57;13.90;49.60
23669;DHT22;12011;47.422;15.018;2023-04-25T05:17:02;14.20;48.50
23669;DHT22;12011;47.422;15.018;2023-04-25T05:20:02;13.90;48.00
23669;DHT22;12011;47.422;15.018;2023-04-25T05:22:54;13.70;47.10
23669;DHT22;12011;47.422;15.018;2023-04-25T05:25:55;13.80;49.00
23669;DHT22;12011;47.422;15.018;2023-04-25T05:28:52;12.00;54.10
23669;DHT22;12011;47.422;15.018;2023-04-25T05:31:46;11.50;55.00
23669;DHT22;12011;47.422;15.018;2023-04-25T05:34:21;12.80;54.40
23669;DHT22;12011;47.422;15.018;2023-04-25T05:37:03;12.20;53.10
23669;DHT22;12011;47.422;15.018;2023-04-25T05:39:45;13.10;60.40
23669;DHT22;12011;47.422;15.018;2023-04-25T05:42:29;14.20;53.90
23669;DHT22;12011;47.422;15.018;2023-04-25T05:45:22;14.60;46.50
23669;DHT22;12011;47.422;15.018;2023-04-25T05:48:28;14.90;44.90
23669;DHT22;12011;47.422;15.018;2023-04-25T05:51:21;13.60;46.80
23669;DHT22;12011;47.422;15.018;2023-04-25T05:54:11;13.60;47.40
23669;DHT22;12011;47.422;15.018;2023-04-25T05:56:41;12.60;51.50
23669;DHT22;12011;47.422;15.018;2023-04-25T05:59:10;12.60;64.30
23669;DHT22;12011;47.422;15.018;2023-04-25T06:01:40;12.10;58.90
23669;DHT22;12011;47.422;15.018;2023-04-25T06:04:09;12.30;56.20
23669;DHT22;12011;47.422;15.018;2023-04-25T06:06:39;13.10;55.00
23669;DHT22;12011;47.422;15.018;2023-04-25T06:09:11;12.70;60.00
23669;DHT22;12011;47.422;15.018;2023-04-25T06:11:41;12.30;62.50
23669;DHT22;12011;47.422;15.018;2023-04-25T06:14:11;13.40;51.40
23669;DHT22;12011;47.422;15.018;2023-04-25T06:16:46;14.00;44.80
23669;DHT22;12011;47.422;15.018;2023-04-25T06:19:16;15.00;45.90
23669;DHT22;12011;47.422;15.018;2023-04-25T06:21:45;15.20;39.80
23669;DHT22;12011;47.422;15.018;2023-04-25T06:24:17;16.00;43.10
23669;DHT22;12011;47.422;15.018;2023-04-25T06:26:47;16.40;41.20
23669;DHT22;12011;47.422;15.018;2023-04-25T06:29:16;15.60;42.50
23669;DHT22;12011;47.422;15.018;2023-04-25T06:31:47;16.60;41.10
23669;DHT22;12011;47.422;15.018;2023-04-25T06:34:17;16.10;38.10
23669;DHT22;12011;47.422;15.018;2023-04-25T06:36:46;15.20;39.50
23669;DHT22;12011;47.422;15.018;2023-04-25T06:39:19;14.40;41.80
23669;DHT22;12011;47.422;15.018;2023-04-25T06:41:49;14.50;48.70
23669;DHT22;12011;47.422;15.018;2023-04-25T06:44:40;14.40;44.50
23669;DHT22;12011;47.422;15.018;2023-04-25T06:47:10;13.60;44.80
23669;DHT22;12011;47.422;15.018;2023-04-25T06:49:42;13.30;45.90
23669;DHT22;12011;47.422;15.018;2023-04-25T06:52:11;14.50;51.40
23669;DHT22;12011;47.422;15.018;2023-04-25T06:54:44;16.30;45.80
23669;DHT22;12011;47.422;15.018;2023-04-25T06:57:33;17.70;40.00
23669;DHT22;12011;47.422;15.018;2023-04-25T07:00:22;17.30;40.00
23669;DHT22;12011;47.422;15.018;2023-04-25T07:02:53;17.00;37.80
23669;DHT22;12011;47.422;15.018;2023-04-25T07:05:22;17.60;34.10
23669;DHT22;12011;47.422;15.018;2023-04-25T07:07:52;18.30;34.30
23669;DHT22;12011;47.422;15.018;2023-04-25T07:10:24;18.70;37.00
23669;DHT22;12011;47.422;15.018;2023-04-25T07:12:54;17.30;32.50
23669;DHT22;12011;47.422;15.018;2023-04-25T07:15:24;17.10;34.50
23669;DHT22;12011;47.422;15.018;2023-04-25T07:17:53;17.10;41.20
23669;DHT22;12011;47.422;15.018;2023-04-25T07:20:23;17.50;41.20
23669;DHT22;12011;47.422;15.018;2023-04-25T07:22:53;15.90;33.50
23669;DHT22;12011;47.422;15.018;2023-04-25T07:25:26;15.70;41.90
23669;DHT22;12011;47.422;15.018;2023-04-25T07:27:57;16.10;40.30
23669;DHT22;12011;47.422;15.018;2023-04-25T07:30:27;16.30;38.00
23669;DHT22;12011;47.422;15.018;2023-04-25T07:32:56;16.10;36.30
23669;DHT22;12011;47.422;15.018;2023-04-25T07:35:26;15.40;38.50
23669;DHT22;12011;47.422;15.018;2023-04-25T07:37:55;15.50;39.90
23669;DHT22;12011;47.422;15.018;2023-04-25T07:40:28;16.70;42.60
23669;DHT22;12011;47.422;15.018;2023-04-25T07:43:03;18.30;40.80
23669;DHT22;12011;47.422;15.018;2023-04-25T07:45:39;20.00;35.70
23669;DHT22;12011;47.422;15.018;2023-04-25T07:48:09;19.80;37.60
23669;DHT22;12011;47.422;15.018;2023-04-25T07:50:40;20.60;31.10
23669;DHT22;12011;47.422;15.018;2023-04-25T07:53:10;21.00;35.80
23669;DHT22;12011;47.422;15.018;2023-04-25T07:55:49;20.00;30.00
23669;DHT22;12011;47.422;15.018;2023-04-25T07:58:20;19.60;33.50
23669;DHT22;12011;47.422;15.018;2023-04-25T08:00:57;17.80;32.60
23669;DHT22;12011;47.422;15.018;2023-04-25T08:03:29;16.50;38.20
23669;DHT22;12011;47.422;15.018;2023-04-25T08:06:00;16.00;38.00
23669;DHT22;12011;47.422;15.018;2023-04-25T08:08:32;15.20;37.20
23669;DHT22;12011;47.422;15.018;2023-04-25T08:11:05;14.80;40.00
23669;DHT22;12011;47.422;15.018;2023-04-25T08:13:35;14.10;38.50
23669;DHT22;12011;47.422;15.018;2023-04-25T08:16:04;13.50;38.20
23669;DHT22;12011;47.422;15.018;2023-04-25T08:18:35;13.40;41.50
23669;DHT22;12011;47.422;15.018;2023-04-25T08:21:05;13.40;39.10
23669;DHT22;12011;47.422;15.018;2023-04-25T08:23:37;13.30;41.80
23669;DHT22;12011;47.422;15.018;2023-04-25T08:26:24;13.40;39.80
23669;DHT22;12011;47.422;15.018;2023-04-25T08:28:54;13.40;40.60
23669;DHT22;12011;47.422;15.018;2023-04-25T08:31:24;15.20;42.60
23669;DHT22;12011;47.422;15.018;2023-04-25T08:33:58;15.40;40.50
23669;DHT22;12011;47.422;15.018;2023-04-25T08:36:57;16.30;38.30
23669;DHT22;12011;47.422;15.018;2023-04-25T08:39:38;18.60;36.00
23669;DHT22;12011;47.422;15.018;2023-04-25T08:42:31;17.20;29.10
23669;DHT22;12011;47.422;15.018;2023-04-25T08:45:04;16.60;32.60
23669;DHT22;12011;47.422;15.018;2023-04-25T08:47:39;16.30;35.70
23669;DHT22;12011;47.422;15.018;2023-04-25T08:50:09;15.50;33.80
23669;DHT22;12011;47.422;15.018;2023-04-25T08:52:44;15.00;35.10
23669;DHT22;12011;47.422;15.018;2023-04-25T08:55:15;14.50;35.80
23669;DHT22;12011;47.422;15.018;2023-04-25T08:57:50;13.90;37.10
23669;DHT22;12011;47.422;15.018;2023-04-25T09:00:19;13.50;38.60
23669;DHT22;12011;47.422;15.018;2023-04-25T09:02:50;13.30;42.20
23669;DHT22;12011;47.422;15.018;2023-04-25T09:05:19;13.40;46.20
23669;DHT22;12011;47.422;15.018;2023-04-25T09:07:52;13.50;44.50
23669;DHT22;12011;47.422;15.018;2023-04-25T09:10:22;13.50;40.40
23669;DHT22;12011;47.422;15.018;2023-04-25T09:13:08;13.30;41.10
23669;DHT22;12011;47.422;15.018;2023-04-25T09:15:58;13.60;42.80
23669;DHT22;12011;47.422;15.018;2023-04-25T09:18:55;13.60;41.80
23669;DHT22;12011;47.422;15.018;2023-04-25T09:21:25;14.20;43.80
23669;DHT22;12011;47.422;15.018;2023-04-25T09:23:57;15.00;40.10
23669;DHT22;12011;47.422;15.018;2023-04-25T09:26:26;16.00;39.00
23669;DHT22;12011;47.422;15.018;2023-04-25T09:29:08;16.80;39.80
23669;DHT22;12011;47.422;15.018;2023-04-25T09:31:40;17.50;36.50
23669;DHT22;12011;47.422;15.018;2023-04-25T09:34:11;17.90;36.00
23669;DHT22;12011;47.422;15.018;2023-04-25T09:36:47;18.40;35.30
23669;DHT22;12011;47.422;15.018;2023-04-25T09:39:28;19.10;32.60
23669;DHT22;12011;47.422;15.018;2023-04-25T09:42:09;20.30;30.40
23669;DHT22;12011;47.422;15.018;2023-04-25T09:44:46;21.00;31.30
23669;DHT22;12011;47.422;15.018;2023-04-25T09:47:16;19.90;29.10
23669;DHT22;12011;47.422;15.018;2023-04-25T09:49:48;20.30;34.50
23669;DHT22;12011;47.422;15.018;2023-04-25T09:52:21;19.60;30.50
23669;DHT22;12011;47.422;15.018;2023-04-25T09:55:01;18.40;29.20
23669;DHT22;12011;47.422;15.018;2023-04-25T09:57:35;18.60;34.90
23669;DHT22;12011;47.422;15.018;2023-04-25T10:00:13;17.90;31.50
23669;DHT22;12011;47.422;15.018;2023-04-25T10:02:47;17.10;34.40
23669;DHT22;12011;47.422;15.018;2023-04-25T10:05:46;16.30;38.50
23669;DHT22;12011;47.422;15.018;2023-04-25T10:08:18;15.50;41.40
23669;DHT22;12011;47.422;15.018;2023-04-25T10:10:49;14.60;40.40
23669;DHT22;12011;47.422;15.018;2023-04-25T10:13:18;13.80;44.00
23669;DHT22;12011;47.422;15.018;2023-04-25T10:15:52;13.30;45.80
23669;DHT22;12011;47.422;15.018;2023-04-25T10:18:25;12.70;45.70
23669;DHT22;12011;47.422;15.018;2023-04-25T10:20:57;12.10;52.40
23669;DHT22;12011;47.422;15.018;2023-04-25T10:23:30;11.80;66.10
23669;DHT22;12011;47.422;15.018;2023-04-25T10:26:00;11.30;72.10
23669;DHT22;12011;47.422;15.018;2023-04-25T10:28:56;10.90;70.70
23669;DHT22;12011;47.422;15.018;2023-04-25T10:31:30;10.60;77.50
23669;DHT22;12011;47.422;15.018;2023-04-25T10:34:00;10.50;84.20
23669;DHT22;12011;47.422;15.018;2023-04-25T10:36:32;10.70;91.40
23669;DHT22;12011;47.422;15.018;2023-04-25T10:39:05;10.70;85.70
23669;DHT22;12011;47.422;15.018;2023-04-25T10:41:46;10.80;90.70
23669;DHT22;12011;47.422;15.018;2023-04-25T10:44:17;10.90;94.40
23669;DHT22;12011;47.422;15.018;2023-04-25T10:46:49;11.80;85.10
23669;DHT22;12011;47.422;15.018;2023-04-25T10:49:32;13.20;79.10
23669;DHT22;12011;47.422;15.018;2023-04-25T10:52:18;14.10;71.10
23669;DHT22;12011;47.422;15.018;2023-04-25T10:54:56;14.40;75.40
23669;DHT22;12011;47.422;15.018;2023-04-25T10:57:31;14.70;58.50
23669;DHT22;12011;47.422;15.018;2023-04-25T11:00:07;15.30;53.80
23669;DHT22;12011;47.422;15.018;2023-04-25T11:02:44;15.20;48.20
23669;DHT22;12011;47.422;15.018;2023-04-25T11:05:28;15.30;48.50
23669;DHT22;12011;47.422;15.018;2023-04-25T11:07:59;15.50;46.60
23669;DHT22;12011;47.422;15.018;2023-04-25T11:10:32;15.40;45.70
23669;DHT22;12011;47.422;15.018;2023-04-25T11:13:02;15.50;47.60
23669;DHT22;12011;47.422;15.018;2023-04-25T11:15:31;15.90;49.60
23669;DHT22;12011;47.422;15.018;2023-04-25T11:18:04;15.70;45.50
23669;DHT22;12011;47.422;15.018;2023-04-25T11:20:33;15.60;45.20
23669;DHT22;12011;47.422;15.018;2023-04-25T11:23:04;16.10;46.10
23669;DHT22;12011;47.422;15.018;2023-04-25T11:25:33;15.80;45.00
23669;DHT22;12011;47.422;15.018;2023-04-25T11:28:04;15.70;49.70
23669;DHT22;12011;47.422;15.018;2023-04-25T11:30:33;16.30;47.70
23669;DHT22;12011;47.422;15.018;2023-04-25T11:33:09;17.30;50.10
23669;DHT22;12011;47.422;15.018;2023-04-25T11:35:40;17.90;43.00
23669;DHT22;12011;47.422;15.018;2023-04-25T11:38:10;17.60;40.70
23669;DHT22;12011;47.422;15.018;2023-04-25T11:40:40;16.90;40.50
23669;DHT22;12011;47.422;15.018;2023-04-25T11:43:18;16.60;42.10
23669;DHT22;12011;47.422;15.018;2023-04-25T11:45:50;16.30;42.00
23669;DHT22;12011;47.422;15.018;2023-04-25T11:48:35;16.40;41.50
23669;DHT22;12011;47.422;15.018;2023-04-25T11:51:06;16.80;43.90
23669;DHT22;12011;47.422;15.018;2023-04-25T11:53:41;17.10;41.20
23669;DHT22;12011;47.422;15.018;2023-04-25T11:56:18;16.90;39.60
23669;DHT22;12011;47.422;15.018;2023-04-25T11:58:54;16.50;40.70
23669;DHT22;12011;47.422;15.018;2023-04-25T12:01:33;16.90;45.10
23669;DHT22;12011;47.422;15.018;2023-04-25T12:04:17;17.30;43.10
23669;DHT22;12011;47.422;15.018;2023-04-25T12:06:53;17.80;39.90
23669;DHT22;12011;47.422;15.018;2023-04-25T12:09:31;17.20;39.90
23669;DHT22;12011;47.422;15.018;2023-04-25T12:12:09;16.60;39.50
23669;DHT22;12011;47.422;15.018;2023-04-25T12:14:47;15.60;39.10
23669;DHT22;12011;47.422;15.018;2023-04-25T12:17:19;15.50;41.90
23669;DHT22;12011;47.422;15.018;2023-04-25T12:19:53;15.50;39.90
23669;DHT22;12011;47.422;15.018;2023-04-25T12:22:31;15.60;41.10
23669;DHT22;12011;47.422;15.018;2023-04-25T12:25:05;15.80;42.00
23669;DHT22;12011;47.422;15.018;2023-04-25T12:27:38;15.80;41.90
23669;DHT22;12011;47.422;15.018;2023-04-25T12:30:11;15.90;39.40
23669;DHT22;12011;47.422;15.018;2023-04-25T12:32:42;16.30;41.60
23669;DHT22;12011;47.422;15.018;2023-04-25T12:35:19;16.10;37.20
23669;DHT22;12011;47.422;15.018;2023-04-25T12:37:56;16.20;38.30
23669;DHT22;12011;47.422;15.018;2023-04-25T12:40:28;16.00;39.90
23669;DHT22;12011;47.422;15.018;2023-04-25T12:43:03;15.30;35.70
23669;DHT22;12011;47.422;15.018;2023-04-25T12:45:33;15.40;39.60
23669;DHT22;12011;47.422;15.018;2023-04-25T12:48:07;15.50;38.60
23669;DHT22;12011;47.422;15.018;2023-04-25T12:50:40;15.60;39.60
23669;DHT22;12011;47.422;15.018;2023-04-25T12:53:17;15.70;39.30
23669;DHT22;12011;47.422;15.018;2023-04-25T12:55:50;15.70;41.00
23669;DHT22;12011;47.422;15.018;2023-04-25T12:58:21;15.80;39.30
23669;DHT22;12011;47.422;15.018;2023-04-25T13:00:53;15.70;43.70
23669;DHT22;12011;47.422;15.018;2023-04-25T13:03:23;15.00;46.00
23669;DHT22;12011;47.422;15.018;2023-04-25T13:05:57;14.30;44.10
23669;DHT22;12011;47.422;15.018;2023-04-25T13:08:28;14.00;45.90
23669;DHT22;12011;47.422;15.018;2023-04-25T13:11:03;13.40;48.80
23669;DHT22;12011;47.422;15.018;2023-04-25T13:13:32;13.40;45.10
23669;DHT22;12011;47.422;15.018;2023-04-25T13:16:06;13.60;45.80
23669;DHT22;12011;47.422;15.018;2023-04-25T13:18:36;13.30;44.40
23669;DHT22;12011;47.422;15.018;2023-04-25T13:21:13;12.90;43.30
23669;DHT22;12011;47.422;15.018;2023-04-25T13:23:44;12.50;49.20
23669;DHT22;12011;47.422;15.018;2023-04-25T13:26:14;12.40;57.00
23669;DHT22;12011;47.422;15.018;2023-04-25T13:28:44;12.60;58.20
23669;DHT22;12011;47.422;15.018;2023-04-25T13:31:13;13.00;65.00
23669;DHT22;12011;47.422;15.018;2023-04-25T13:33:43;13.80;70.60
23669;DHT22;12011;47.422;15.018;2023-04-25T13:36:15;14.60;54.40
23669;DHT22;12011;47.422;15.018;2023-04-25T13:38:45;14.50;52.30
23669;DHT22;12011;47.422;15.018;2023-04-25T13:41:15;14.20;45.10
23669;DHT22;12011;47.422;15.018;2023-04-25T13:43:45;14.00;47.90
23669;DHT22;12011;47.422;15.018;2023-04-25T13:46:16;14.60;50.20
23669;DHT22;12011;47.422;15.018;2023-04-25T13:48:45;15.40;54.90
23669;DHT22;12011;47.422;15.018;2023-04-25T13:51:19;15.30;48.40
23669;DHT22;12011;47.422;15.018;2023-04-25T13:53:48;15.30;47.90
23669;DHT22;12011;47.422;15.018;2023-04-25T13:56:18;14.90;49.00
23669;DHT22;12011;47.422;15.018;2023-04-25T13:58:48;14.80;44.40
23669;DHT22;12011;47.422;15.018;2023-04-25T14:01:18;14.70;42.90
23669;DHT22;12011;47.422;15.018;2023-04-25T14:03:47;14.80;43.30
23669;DHT22;12011;47.422;15.018;2023-04-25T14:06:19;15.20;45.30
23669;DHT22;12011;47.422;15.018;2023-04-25T14:08:50;15.60;45.80
23669;DHT22;12011;47.422;15.018;2023-04-25T14:11:20;15.60;46.00
23669;DHT22;12011;47.422;15.018;2023-04-25T14:13:49;15.60;45.40
23669;DHT22;12011;47.422;15.018;2023-04-25T14:16:19;15.40;45.70
23669;DHT22;12011;47.422;15.018;2023-04-25T14:18:49;15.40;43.80
23669;DHT22;12011;47.422;15.018;2023-04-25T14:21:21;15.50;41.60
23669;DHT22;12011;47.422;15.018;2023-04-25T14:23:51;15.40;39.80
23669;DHT22;12011;47.422;15.018;2023-04-25T14:26:21;15.30;41.90
23669;DHT22;12011;47.422;15.018;2023-04-25T14:28:50;15.10;40.30
23669;DHT22;12011;47.422;15.018;2023-04-25T14:31:20;14.90;37.50
23669;DHT22;12011;47.422;15.018;2023-04-25T14:33:49;15.20;43.00
23669;DHT22;12011;47.422;15.018;2023-04-25T14:36:22;14.90;39.10
23669;DHT22;12011;47.422;15.018;2023-04-25T14:38:52;14.40;41.30
23669;DHT22;12011;47.422;15.018;2023-04-25T14:41:22;14.10;44.60
23669;DHT22;12011;47.422;15.018;2023-04-25T14:43:52;14.10;42.00
23669;DHT22;12011;47.422;15.018;2023-04-25T14:46:23;13.80;47.50
23669;DHT22;12011;47.422;15.018;2023-04-25T14:48:53;13.70;41.30
23669;DHT22;12011;47.422;15.018;2023-04-25T14:51:25;13.60;42.80
23669;DHT22;12011;47.422;15.018;2023-04-25T14:53:55;13.80;44.40
23669;DHT22;12011;47.422;15.018;2023-04-25T14:56:25;14.10;43.90
23669;DHT22;12011;47.422;15.018;2023-04-25T14:58:54;14.00;42.00
23669;DHT22;12011;47.422;15.018;2023-04-25T15:01:24;14.00;42.20
23669;DHT22;12011;47.422;15.018;2023-04-25T15:03:53;13.80;43.10
23669;DHT22;12011;47.422;15.018;2023-04-25T15:06:26;13.60;44.10
23669;DHT22;12011;47.422;15.018;2023-04-25T15:08:56;13.80;44.20
23669;DHT22;12011;47.422;15.018;2023-04-25T15:11:26;14.40;44.70
23669;DHT22;12011;47.422;15.018;2023-04-25T15:13:55;14.50;43.30
23669;DHT22;12011;47.422;15.018;2023-04-25T15:16:25;14.40;41.40
23669;DHT22;12011;47.422;15.018;2023-04-25T15:18:55;14.30;44.60
23669;DHT22;12011;47.422;15.018;2023-04-25T15:21:27;13.80;40.90
23669;DHT22;12011;47.422;15.018;2023-04-25T15:23:56;13.40;39.60
23669;DHT22;12011;47.422;15.018;2023-04-25T15:26:26;13.10;44.30
23669;DHT22;12011;47.422;15.018;2023-04-25T15:28:56;13.10;44.70
23669;DHT22;12011;47.422;15.018;2023-04-25T15:31:26;13.00;45.60
23669;DHT22;12011;47.422;15.018;2023-04-25T15:33:55;12.90;44.20
23669;DHT22;12011;47.422;15.018;2023-04-25T15:36:28;12.90;45.30
23669;DHT22;12011;47.422;15.018;2023-04-25T15:38:58;12.60;47.20
23669;DHT22;12011;47.422;15.018;2023-04-25T15:41:29;12.50;49.90
23669;DHT22;12011;47.422;15.018;2023-04-25T15:43:59;12.30;47.40
23669;DHT22;12011;47.422;15.018;2023-04-25T15:46:29;12.10;47.70
23669;DHT22;12011;47.422;15.018;2023-04-25T15:48:59;12.00;47.90
23669;DHT22;12011;47.422;15.018;2023-04-25T15:51:31;11.70;48.20
23669;DHT22;12011;47.422;15.018;2023-04-25T15:54:01;11.40;51.80
23669;DHT22;12011;47.422;15.018;2023-04-25T15:56:31;11.30;51.80
23669;DHT22;12011;47.422;15.018;2023-04-25T15:59:01;11.20;58.50
23669;DHT22;12011;47.422;15.018;2023-04-25T16:01:30;11.20;61.90
23669;DHT22;12011;47.422;15.018;2023-04-25T16:04:00;11.00;69.80
23669;DHT22;12011;47.422;15.018;2023-04-25T16:06:32;11.00;66.70
23669;DHT22;12011;47.422;15.018;2023-04-25T16:09:01;11.00;60.00